sensor_id;sensor_type;location;lat;lon;timestamp;pressure;altitude;pressure_sealevel;temperature;humidity
22580;BME280;11456;47.030;15.396;2022-12-18T00:01:32;98910.53;;;-2.05;100.00
22580;BME280;11456;47.030;15.396;2022-12-18T00:04:00;98905.88;;;-1.95;100.00
22580;BME280;11456;47.030;15.396;2022-12-18T00:06:27;98914.34;;;-2.13;100.00
22580;BME280;11456;47.030;15.396;2022-12-18T00:08:55;98912.38;;;-2.07;100.00
22580;BME280;11456;47.030;15.396;2022-12-18T00:11:23;98921.19;;;-2.08;100.00
22580;BME280;11456;47.030;15.396;2022-12-18T00:13:50;98924.59;;;-2.04;100.00
22580;BME280;11456;47.030;15.396;2022-12-18T00:16:18;98932.19;;;-2.23;100.00
22580;BME280;11456;47.030;15.396;2022-12-18T00:18:49;98926.25;;;-2.00;100.00
22580;BME280;11456;47.030;15.396;2022-12-18T00:21:15;98926.47;;;-2.08;100.00
22580;BME280;11456;47.030;15.396;2022-12-18T00:23:43;98937.22;;;-2.14;100.00
22580;BME280;11456;47.030;15.396;2022-12-18T00:26:11;98933.72;;;-2.14;100.00
22580;BME280;11456;47.030;15.396;2022-12-18T00:28:38;98933.03;;;-1.91;100.00
22580;BME280;11456;47.030;15.396;2022-12-18T00:31:08;98934.78;;;-2.21;100.00
22580;BME280;11456;47.030;15.396;2022-12-18T00:33:36;98951.72;;;-2.30;100.00
22580;BME280;11456;47.030;15.396;2022-12-18T00:36:04;98952.59;;;-2.29;100.00
22580;BME280;11456;47.030;15.396;2022-12-18T00:38:31;98961.28;;;-2.24;100.00
22580;BME280;11456;47.030;15.396;2022-12-18T00:40:57;98962.28;;;-2.30;100.00
22580;BME280;11456;47.030;15.396;2022-12-18T00:43:24;98960.09;;;-2.47;100.00
22580;BME280;11456;47.030;15.396;2022-12-18T00:45:51;98971.22;;;-2.35;100.00
22580;BME280;11456;47.030;15.396;2022-12-18T00:48:18;98966.94;;;-2.39;100.00
22580;BME280;11456;47.030;15.396;2022-12-18T00:50:45;98968.34;;;-2.26;100.00
22580;BME280;11456;47.030;15.396;2022-12-18T00:53:11;98972.53;;;-2.18;100.00
22580;BME280;11456;47.030;15.396;2022-12-18T00:55:41;98973.19;;;-2.11;100.00
22580;BME280;11456;47.030;15.396;2022-12-18T00:58:08;98969.59;;;-2.07;100.00
22580;BME280;11456;47.030;15.396;2022-12-18T01:00:35;98971.06;;;-2.29;100.00
22580;BME280;11456;47.030;15.396;2022-12-18T01:03:02;98967.91;;;-2.11;100.00
22580;BME280;11456;47.030;15.396;2022-12-18T01:05:29;98971.53;;;-2.14;100.00
22580;BME280;11456;47.030;15.396;2022-12-18T01:07:56;98979.56;;;-2.18;100.00
22580;BME280;11456;47.030;15.396;2022-12-18T01:10:23;98977.41;;;-2.36;100.00
22580;BME280;11456;47.030;15.396;2022-12-18T01:12:49;98982.69;;;-2.36;100.00
22580;BME280;11456;47.030;15.396;2022-12-18T01:15:16;98997.09;;;-2.50;100.00
22580;BME280;11456;47.030;15.396;2022-12-18T01:17:43;98984.34;;;-2.32;100.00
22580;BME280;11456;47.030;15.396;2022-12-18T01:20:10;98989.00;;;-2.76;100.00
22580;BME280;11456;47.030;15.396;2022-12-18T01:22:37;98991.81;;;-2.50;100.00
22580;BME280;11456;47.030;15.396;2022-12-18T01:25:06;98988.75;;;-2.67;100.00
22580;BME280;11456;47.030;15.396;2022-12-18T01:27:33;98999.09;;;-2.58;100.00
22580;BME280;11456;47.030;15.396;2022-12-18T01:30:02;98997.41;;;-2.28;100.00
22580;BME280;11456;47.030;15.396;2022-12-18T01:32:29;98993.16;;;-2.33;100.00
22580;BME280;11456;47.030;15.396;2022-12-18T01:34:56;99002.28;;;-2.45;100.00
22580;BME280;11456;47.030;15.396;2022-12-18T01:37:23;99005.69;;;-2.42;100.00
22580;BME280;11456;47.030;15.396;2022-12-18T01:39:51;99003.63;;;-2.63;100.00
22580;BME280;11456;47.030;15.396;2022-12-18T01:42:20;99009.47;;;-2.52;100.00
22580;BME280;11456;47.030;15.396;2022-12-18T01:50:45;99014.75;;;-2.52;100.00
22580;BME280;11456;47.030;15.396;2022-12-18T01:52:53;99026.47;;;-2.29;100.00
22580;BME280;11456;47.030;15.396;2022-12-18T01:55:20;99026.31;;;-2.23;100.00
22580;BME280;11456;47.030;15.396;2022-12-18T01:57:49;99026.06;;;-2.14;100.00
22580;BME280;11456;47.030;15.396;2022-12-18T02:00:18;99028.75;;;-2.16;100.00
22580;BME280;11456;47.030;15.396;2022-12-18T02:02:45;99029.78;;;-2.21;100.00
22580;BME280;11456;47.030;15.396;2022-12-18T02:05:16;99034.94;;;-2.51;100.00
22580;BME280;11456;47.030;15.396;2022-12-18T02:07:53;99033.31;;;-2.22;100.00
22580;BME280;11456;47.030;15.396;2022-12-18T02:10:27;99029.69;;;-2.51;100.00
22580;BME280;11456;47.030;15.396;2022-12-18T02:13:17;99031.19;;;-2.42;100.00
22580;BME280;11456;47.030;15.396;2022-12-18T02:15:52;99039.22;;;-2.45;100.00
22580;BME280;11456;47.030;15.396;2022-12-18T02:18:27;99031.78;;;-2.65;100.00
22580;BME280;11456;47.030;15.396;2022-12-18T02:26:12;99044.44;;;-2.79;100.00
22580;BME280;11456;47.030;15.396;2022-12-18T02:28:44;99049.50;;;-2.70;100.00
22580;BME280;11456;47.030;15.396;2022-12-18T02:31:14;99048.53;;;-3.04;100.00
22580;BME280;11456;47.030;15.396;2022-12-18T02:33:42;99056.88;;;-2.86;100.00
22580;BME280;11456;47.030;15.396;2022-12-18T02:36:11;99048.38;;;-2.97;100.00
22580;BME280;11456;47.030;15.396;2022-12-18T02:38:41;99041.50;;;-3.04;100.00
22580;BME280;11456;47.030;15.396;2022-12-18T02:41:12;99049.66;;;-3.14;100.00
22580;BME280;11456;47.030;15.396;2022-12-18T02:43:39;99037.38;;;-3.15;100.00
22580;BME280;11456;47.030;15.396;2022-12-18T02:47:08;99038.97;;;-3.08;100.00
22580;BME280;11456;47.030;15.396;2022-12-18T02:49:12;99040.50;;;-2.98;100.00
22580;BME280;11456;47.030;15.396;2022-12-18T02:51:51;99046.63;;;-2.98;100.00
22580;BME280;11456;47.030;15.396;2022-12-18T02:56:58;99058.09;;;-3.00;100.00
22580;BME280;11456;47.030;15.396;2022-12-18T02:59:34;99068.13;;;-3.16;100.00
22580;BME280;11456;47.030;15.396;2022-12-18T03:02:06;99065.66;;;-3.24;100.00
22580;BME280;11456;47.030;15.396;2022-12-18T03:07:06;99074.59;;;-3.31;100.00
22580;BME280;11456;47.030;15.396;2022-12-18T03:09:36;99070.13;;;-3.27;100.00
22580;BME280;11456;47.030;15.396;2022-12-18T03:12:07;99070.78;;;-3.16;100.00
22580;BME280;11456;47.030;15.396;2022-12-18T03:17:23;99077.84;;;-3.19;99.44
22580;BME280;11456;47.030;15.396;2022-12-18T03:19:51;99071.81;;;-3.25;99.93
22580;BME280;11456;47.030;15.396;2022-12-18T03:22:19;99073.09;;;-3.44;99.81
22580;BME280;11456;47.030;15.396;2022-12-18T03:24:50;99077.22;;;-3.31;99.83
22580;BME280;11456;47.030;15.396;2022-12-18T03:27:18;99067.09;;;-3.50;99.30
22580;BME280;11456;47.030;15.396;2022-12-18T03:29:48;99056.59;;;-3.52;98.93
22580;BME280;11456;47.030;15.396;2022-12-18T03:32:23;99062.44;;;-3.38;98.67
22580;BME280;11456;47.030;15.396;2022-12-18T03:34:51;99062.56;;;-3.44;97.97
22580;BME280;11456;47.030;15.396;2022-12-18T03:37:21;99066.44;;;-3.60;97.75
22580;BME280;11456;47.030;15.396;2022-12-18T03:39:48;99080.28;;;-3.52;97.53
22580;BME280;11456;47.030;15.396;2022-12-18T03:42:17;99090.00;;;-3.54;97.03
22580;BME280;11456;47.030;15.396;2022-12-18T03:45:01;99079.38;;;-3.49;96.78
22580;BME280;11456;47.030;15.396;2022-12-18T03:47:32;99075.44;;;-3.29;96.94
22580;BME280;11456;47.030;15.396;2022-12-18T03:52:41;99077.00;;;-3.63;96.48
22580;BME280;11456;47.030;15.396;2022-12-18T03:55:12;99090.88;;;-3.53;95.81
22580;BME280;11456;47.030;15.396;2022-12-18T03:57:40;99089.16;;;-3.56;95.09
22580;BME280;11456;47.030;15.396;2022-12-18T04:00:10;99096.47;;;-3.70;95.04
22580;BME280;11456;47.030;15.396;2022-12-18T04:02:52;99094.56;;;-3.62;95.52
22580;BME280;11456;47.030;15.396;2022-12-18T04:05:26;99103.34;;;-3.63;94.82
22580;BME280;11456;47.030;15.396;2022-12-18T04:07:54;99102.47;;;-3.62;95.06
22580;BME280;11456;47.030;15.396;2022-12-18T04:10:22;99105.16;;;-3.65;95.38
22580;BME280;11456;47.030;15.396;2022-12-18T04:12:49;99101.34;;;-3.52;94.96
22580;BME280;11456;47.030;15.396;2022-12-18T04:15:16;99103.06;;;-3.48;94.93
22580;BME280;11456;47.030;15.396;2022-12-18T04:17:49;99100.06;;;-3.31;93.93
22580;BME280;11456;47.030;15.396;2022-12-18T04:20:19;99094.56;;;-3.62;95.13
22580;BME280;11456;47.030;15.396;2022-12-18T04:22:46;99101.44;;;-3.55;95.30
22580;BME280;11456;47.030;15.396;2022-12-18T04:25:13;99108.06;;;-3.79;94.50
22580;BME280;11456;47.030;15.396;2022-12-18T04:27:52;99109.09;;;-3.87;94.58
22580;BME280;11456;47.030;15.396;2022-12-18T04:30:18;99121.34;;;-3.86;94.43
22580;BME280;11456;47.030;15.396;2022-12-18T04:32:45;99130.28;;;-3.96;94.41
22580;BME280;11456;47.030;15.396;2022-12-18T04:35:18;99139.47;;;-4.19;94.92
22580;BME280;11456;47.030;15.396;2022-12-18T04:37:45;99135.72;;;-4.04;94.77
22580;BME280;11456;47.030;15.396;2022-12-18T04:40:12;99132.09;;;-3.98;94.41
22580;BME280;11456;47.030;15.396;2022-12-18T04:42:42;99130.91;;;-3.81;94.40
22580;BME280;11456;47.030;15.396;2022-12-18T04:45:09;99142.78;;;-4.08;93.54
22580;BME280;11456;47.030;15.396;2022-12-18T04:47:35;99144.38;;;-3.97;93.48
22580;BME280;11456;47.030;15.396;2022-12-18T04:50:02;99149.66;;;-4.00;93.89
22580;BME280;11456;47.030;15.396;2022-12-18T04:52:29;99148.81;;;-4.01;92.86
22580;BME280;11456;47.030;15.396;2022-12-18T04:54:55;99155.00;;;-4.03;92.58
22580;BME280;11456;47.030;15.396;2022-12-18T04:57:22;99154.59;;;-3.81;93.17
22580;BME280;11456;47.030;15.396;2022-12-18T04:59:48;99161.72;;;-3.87;93.02
22580;BME280;11456;47.030;15.396;2022-12-18T05:02:14;99158.09;;;-3.80;93.06
22580;BME280;11456;47.030;15.396;2022-12-18T05:04:41;99163.34;;;-3.79;92.94
22580;BME280;11456;47.030;15.396;2022-12-18T05:07:07;99154.44;;;-3.73;92.97
22580;BME280;11456;47.030;15.396;2022-12-18T05:09:34;99159.88;;;-3.82;93.07
22580;BME280;11456;47.030;15.396;2022-12-18T05:12:00;99166.94;;;-3.84;93.24
22580;BME280;11456;47.030;15.396;2022-12-18T05:14:27;99168.06;;;-3.97;92.60
22580;BME280;11456;47.030;15.396;2022-12-18T05:16:55;99165.81;;;-4.22;92.81
22580;BME280;11456;47.030;15.396;2022-12-18T05:19:26;99178.44;;;-4.42;93.50
22580;BME280;11456;47.030;15.396;2022-12-18T05:21:52;99174.66;;;-4.26;93.17
22580;BME280;11456;47.030;15.396;2022-12-18T05:24:19;99179.69;;;-4.11;92.94
22580;BME280;11456;47.030;15.396;2022-12-18T05:26:46;99186.38;;;-3.91;93.20
22580;BME280;11456;47.030;15.396;2022-12-18T05:29:12;99189.81;;;-3.89;93.08
22580;BME280;11456;47.030;15.396;2022-12-18T05:31:39;99190.84;;;-3.49;92.43
22580;BME280;11456;47.030;15.396;2022-12-18T05:34:07;99193.91;;;-3.26;91.14
22580;BME280;11456;47.030;15.396;2022-12-18T05:36:35;99199.25;;;-3.29;91.69
22580;BME280;11456;47.030;15.396;2022-12-18T05:39:02;99193.78;;;-3.19;91.14
22580;BME280;11456;47.030;15.396;2022-12-18T05:41:29;99196.16;;;-3.52;92.38
22580;BME280;11456;47.030;15.396;2022-12-18T05:43:56;99196.50;;;-3.70;93.43
22580;BME280;11456;47.030;15.396;2022-12-18T05:46:22;99201.00;;;-3.77;93.78
22580;BME280;11456;47.030;15.396;2022-12-18T05:48:50;99196.91;;;-3.91;93.94
22580;BME280;11456;47.030;15.396;2022-12-18T05:51:18;99205.81;;;-4.01;94.59
22580;BME280;11456;47.030;15.396;2022-12-18T05:53:45;99198.56;;;-3.87;94.38
22580;BME280;11456;47.030;15.396;2022-12-18T05:56:16;99196.91;;;-3.91;94.29
22580;BME280;11456;47.030;15.396;2022-12-18T05:58:43;99194.47;;;-4.03;94.70
22580;BME280;11456;47.030;15.396;2022-12-18T06:01:20;99207.63;;;-4.03;94.57
22580;BME280;11456;47.030;15.396;2022-12-18T06:03:47;99211.59;;;-3.78;94.65
22580;BME280;11456;47.030;15.396;2022-12-18T06:06:18;99207.22;;;-3.79;93.61
22580;BME280;11456;47.030;15.396;2022-12-18T06:08:45;99218.59;;;-3.79;94.03
22580;BME280;11456;47.030;15.396;2022-12-18T06:11:12;99214.50;;;-3.96;93.56
22580;BME280;11456;47.030;15.396;2022-12-18T06:13:38;99221.72;;;-4.08;93.55
22580;BME280;11456;47.030;15.396;2022-12-18T06:16:06;99216.13;;;-3.89;93.66
22580;BME280;11456;47.030;15.396;2022-12-18T06:18:32;99223.41;;;-4.03;92.97
22580;BME280;11456;47.030;15.396;2022-12-18T06:20:59;99226.88;;;-4.01;93.33
22580;BME280;11456;47.030;15.396;2022-12-18T06:23:26;99230.19;;;-3.90;93.91
22580;BME280;11456;47.030;15.396;2022-12-18T06:25:53;99235.28;;;-3.78;93.54
22580;BME280;11456;47.030;15.396;2022-12-18T06:28:19;99248.53;;;-3.84;93.30
22580;BME280;11456;47.030;15.396;2022-12-18T06:30:47;99249.31;;;-3.79;93.35
22580;BME280;11456;47.030;15.396;2022-12-18T06:33:14;99251.72;;;-3.66;93.23
22580;BME280;11456;47.030;15.396;2022-12-18T06:35:41;99255.84;;;-3.51;93.54
22580;BME280;11456;47.030;15.396;2022-12-18T06:38:07;99255.94;;;-3.57;93.29
22580;BME280;11456;47.030;15.396;2022-12-18T06:40:34;99263.03;;;-3.59;93.58
22580;BME280;11456;47.030;15.396;2022-12-18T06:43:02;99261.94;;;-3.46;94.06
22580;BME280;11456;47.030;15.396;2022-12-18T06:45:29;99255.34;;;-3.24;94.12
22580;BME280;11456;47.030;15.396;2022-12-18T06:47:55;99265.09;;;-3.27;94.25
22580;BME280;11456;47.030;15.396;2022-12-18T06:50:22;99257.09;;;-3.22;94.56
22580;BME280;11456;47.030;15.396;2022-12-18T06:52:49;99272.63;;;-3.07;94.71
22580;BME280;11456;47.030;15.396;2022-12-18T06:55:15;99276.19;;;-3.11;95.29
22580;BME280;11456;47.030;15.396;2022-12-18T06:57:42;99285.69;;;-3.01;95.37
22580;BME280;11456;47.030;15.396;2022-12-18T07:00:08;99286.81;;;-3.14;95.09
22580;BME280;11456;47.030;15.396;2022-12-18T07:02:35;99288.22;;;-2.95;94.42
22580;BME280;11456;47.030;15.396;2022-12-18T07:05:02;99282.72;;;-2.86;94.94
22580;BME280;11456;47.030;15.396;2022-12-18T07:07:35;99279.03;;;-2.76;95.08
22580;BME280;11456;47.030;15.396;2022-12-18T07:10:02;99284.59;;;-2.50;95.51
22580;BME280;11456;47.030;15.396;2022-12-18T07:12:29;99289.78;;;-2.44;94.93
22580;BME280;11456;47.030;15.396;2022-12-18T07:14:55;99293.47;;;-2.51;94.62
22580;BME280;11456;47.030;15.396;2022-12-18T07:17:22;99287.88;;;-2.37;94.91
22580;BME280;11456;47.030;15.396;2022-12-18T07:19:48;99295.00;;;-2.42;94.27
22580;BME280;11456;47.030;15.396;2022-12-18T07:22:15;99294.81;;;-2.31;94.50
22580;BME280;11456;47.030;15.396;2022-12-18T07:24:41;99304.25;;;-2.21;94.30
22580;BME280;11456;47.030;15.396;2022-12-18T07:27:08;99298.63;;;-2.06;94.55
22580;BME280;11456;47.030;15.396;2022-12-18T07:29:35;99303.25;;;-2.17;94.02
22580;BME280;11456;47.030;15.396;2022-12-18T07:32:03;99307.13;;;-2.32;94.59
22580;BME280;11456;47.030;15.396;2022-12-18T07:34:29;99325.22;;;-2.15;94.51
22580;BME280;11456;47.030;15.396;2022-12-18T07:36:56;99322.69;;;-2.20;95.12
22580;BME280;11456;47.030;15.396;2022-12-18T07:39:22;99316.41;;;-2.14;95.17
22580;BME280;11456;47.030;15.396;2022-12-18T07:41:49;99314.47;;;-1.68;93.76
22580;BME280;11456;47.030;15.396;2022-12-18T07:44:38;99329.78;;;-2.23;94.14
22580;BME280;11456;47.030;15.396;2022-12-18T07:47:05;99324.91;;;-2.00;94.41
22580;BME280;11456;47.030;15.396;2022-12-18T07:49:37;99307.81;;;-1.48;92.09
22580;BME280;11456;47.030;15.396;2022-12-18T07:52:03;99325.25;;;-1.41;90.83
22580;BME280;11456;47.030;15.396;2022-12-18T07:54:30;99336.03;;;-1.50;93.21
22580;BME280;11456;47.030;15.396;2022-12-18T07:56:56;99328.72;;;-1.39;92.64
22580;BME280;11456;47.030;15.396;2022-12-18T07:59:23;99339.16;;;-1.70;92.77
22580;BME280;11456;47.030;15.396;2022-12-18T08:01:49;99341.28;;;-1.47;92.60
22580;BME280;11456;47.030;15.396;2022-12-18T08:04:16;99342.91;;;-1.43;92.37
22580;BME280;11456;47.030;15.396;2022-12-18T08:06:43;99342.53;;;-0.94;91.60
22580;BME280;11456;47.030;15.396;2022-12-18T08:09:13;99348.28;;;-0.77;89.46
22580;BME280;11456;47.030;15.396;2022-12-18T08:11:40;99345.31;;;-0.66;87.13
22580;BME280;11456;47.030;15.396;2022-12-18T08:14:06;99335.56;;;-0.64;86.94
22580;BME280;11456;47.030;15.396;2022-12-18T08:16:33;99338.06;;;0.00;87.45
22580;BME280;11456;47.030;15.396;2022-12-18T08:18:59;99334.06;;;0.17;87.41
22580;BME280;11456;47.030;15.396;2022-12-18T08:21:27;99347.75;;;0.02;84.24
22580;BME280;11456;47.030;15.396;2022-12-18T08:23:54;99351.28;;;0.31;86.81
22580;BME280;11456;47.030;15.396;2022-12-18T08:26:21;99350.66;;;0.77;83.70
22580;BME280;11456;47.030;15.396;2022-12-18T08:28:48;99344.84;;;0.66;84.36
22580;BME280;11456;47.030;15.396;2022-12-18T08:31:16;99334.16;;;1.45;82.62
22580;BME280;11456;47.030;15.396;2022-12-18T08:33:42;99326.66;;;1.56;78.11
22580;BME280;11456;47.030;15.396;2022-12-18T08:36:10;99326.38;;;1.41;78.95
22580;BME280;11456;47.030;15.396;2022-12-18T08:38:36;99332.88;;;1.32;79.82
22580;BME280;11456;47.030;15.396;2022-12-18T08:41:07;99342.06;;;1.72;79.87
22580;BME280;11456;47.030;15.396;2022-12-18T08:43:35;99346.97;;;1.34;81.36
22580;BME280;11456;47.030;15.396;2022-12-18T08:46:20;99349.88;;;1.51;77.80
22580;BME280;11456;47.030;15.396;2022-12-18T08:48:47;99352.91;;;1.89;78.00
22580;BME280;11456;47.030;15.396;2022-12-18T08:51:15;99353.66;;;2.16;74.41
22580;BME280;11456;47.030;15.396;2022-12-18T08:53:42;99352.63;;;1.24;76.94
22580;BME280;11456;47.030;15.396;2022-12-18T08:56:09;99349.09;;;2.19;73.06
22580;BME280;11456;47.030;15.396;2022-12-18T08:58:36;99346.44;;;1.73;72.74
22580;BME280;11456;47.030;15.396;2022-12-18T09:01:03;99351.47;;;1.06;76.74
22580;BME280;11456;47.030;15.396;2022-12-18T09:03:30;99355.47;;;1.67;76.69
22580;BME280;11456;47.030;15.396;2022-12-18T09:05:57;99362.88;;;1.34;76.62
22580;BME280;11456;47.030;15.396;2022-12-18T09:08:23;99355.28;;;1.48;78.38
22580;BME280;11456;47.030;15.396;2022-12-18T09:10:50;99360.63;;;2.85;76.23
22580;BME280;11456;47.030;15.396;2022-12-18T09:13:17;99354.63;;;2.13;74.38
22580;BME280;11456;47.030;15.396;2022-12-18T09:15:47;99358.19;;;1.90;76.55
22580;BME280;11456;47.030;15.396;2022-12-18T09:18:14;99361.78;;;2.34;76.93
22580;BME280;11456;47.030;15.396;2022-12-18T09:20:41;99365.66;;;2.49;74.94
22580;BME280;11456;47.030;15.396;2022-12-18T09:23:08;99377.28;;;1.77;76.49
22580;BME280;11456;47.030;15.396;2022-12-18T09:25:35;99381.50;;;2.06;76.13
22580;BME280;11456;47.030;15.396;2022-12-18T09:28:03;99372.25;;;2.39;75.27
22580;BME280;11456;47.030;15.396;2022-12-18T09:30:30;99377.22;;;2.48;76.02
22580;BME280;11456;47.030;15.396;2022-12-18T09:32:57;99362.94;;;2.72;74.09
22580;BME280;11456;47.030;15.396;2022-12-18T09:35:23;99369.53;;;2.84;75.07
22580;BME280;11456;47.030;15.396;2022-12-18T09:37:50;99376.41;;;2.90;72.69
22580;BME280;11456;47.030;15.396;2022-12-18T09:40:18;99368.56;;;2.65;72.88
22580;BME280;11456;47.030;15.396;2022-12-18T09:42:45;99377.09;;;2.73;72.08
22580;BME280;11456;47.030;15.396;2022-12-18T09:45:14;99360.38;;;2.91;71.39
22580;BME280;11456;47.030;15.396;2022-12-18T09:47:41;99371.88;;;3.54;67.07
22580;BME280;11456;47.030;15.396;2022-12-18T09:52:47;99357.88;;;2.21;71.12
22580;BME280;11456;47.030;15.396;2022-12-18T09:55:23;99366.81;;;2.64;71.01
22580;BME280;11456;47.030;15.396;2022-12-18T09:57:55;99357.16;;;2.39;72.06
22580;BME280;11456;47.030;15.396;2022-12-18T10:00:23;99364.00;;;2.23;70.49
22580;BME280;11456;47.030;15.396;2022-12-18T10:02:53;99360.06;;;1.64;74.18
22580;BME280;11456;47.030;15.396;2022-12-18T10:05:23;99365.00;;;0.98;75.88
22580;BME280;11456;47.030;15.396;2022-12-18T10:07:58;99362.31;;;1.49;77.25
22580;BME280;11456;47.030;15.396;2022-12-18T10:10:36;99356.34;;;1.68;75.59
22580;BME280;11456;47.030;15.396;2022-12-18T10:15:48;99347.22;;;1.27;76.84
22580;BME280;11456;47.030;15.396;2022-12-18T10:18:23;99358.53;;;1.07;77.27
22580;BME280;11456;47.030;15.396;2022-12-18T10:20:54;99353.00;;;0.87;79.04
22580;BME280;11456;47.030;15.396;2022-12-18T10:28:24;99356.34;;;0.10;80.64
22580;BME280;11456;47.030;15.396;2022-12-18T10:30:51;99356.59;;;0.31;80.62
22580;BME280;11456;47.030;15.396;2022-12-18T10:33:22;99359.47;;;0.24;80.03
22580;BME280;11456;47.030;15.396;2022-12-18T10:35:50;99349.34;;;0.36;79.65
22580;BME280;11456;47.030;15.396;2022-12-18T10:43:25;99359.06;;;0.36;77.07
22580;BME280;11456;47.030;15.396;2022-12-18T10:48:27;99354.06;;;0.27;79.19
22580;BME280;11456;47.030;15.396;2022-12-18T10:50:54;99350.16;;;0.11;80.30
22580;BME280;11456;47.030;15.396;2022-12-18T10:53:38;99342.09;;;0.69;77.87
22580;BME280;11456;47.030;15.396;2022-12-18T10:56:06;99339.03;;;0.55;80.04
22580;BME280;11456;47.030;15.396;2022-12-18T10:58:37;99333.72;;;0.55;79.35
22580;BME280;11456;47.030;15.396;2022-12-18T11:08:36;99343.94;;;0.12;79.66
22580;BME280;11456;47.030;15.396;2022-12-18T11:11:06;99346.56;;;-0.47;82.67
22580;BME280;11456;47.030;15.396;2022-12-18T11:13:33;99356.47;;;-0.55;85.22
22580;BME280;11456;47.030;15.396;2022-12-18T11:16:00;99352.91;;;-0.54;86.38
22580;BME280;11456;47.030;15.396;2022-12-18T11:18:28;99348.59;;;-0.26;85.05
22580;BME280;11456;47.030;15.396;2022-12-18T11:21:06;99334.66;;;-0.03;84.26
22580;BME280;11456;47.030;15.396;2022-12-18T11:23:34;99334.06;;;0.17;83.72
22580;BME280;11456;47.030;15.396;2022-12-18T11:26:02;99337.69;;;0.42;82.97
22580;BME280;11456;47.030;15.396;2022-12-18T11:31:12;99339.81;;;-0.28;84.59
22580;BME280;11456;47.030;15.396;2022-12-18T11:33:39;99336.72;;;-0.44;85.04
22580;BME280;11456;47.030;15.396;2022-12-18T11:36:29;99330.53;;;-0.73;86.09
22580;BME280;11456;47.030;15.396;2022-12-18T11:38:57;99321.84;;;-0.78;88.63
22580;BME280;11456;47.030;15.396;2022-12-18T11:41:38;99322.63;;;-0.44;86.76
22580;BME280;11456;47.030;15.396;2022-12-18T11:44:27;99325.41;;;-0.79;87.89
22580;BME280;11456;47.030;15.396;2022-12-18T11:47:03;99317.63;;;-0.24;87.87
22580;BME280;11456;47.030;15.396;2022-12-18T11:49:35;99309.25;;;-0.09;87.03
22580;BME280;11456;47.030;15.396;2022-12-18T11:52:16;99312.59;;;-0.04;87.85
22580;BME280;11456;47.030;15.396;2022-12-18T11:54:44;99312.50;;;-0.30;88.10
22580;BME280;11456;47.030;15.396;2022-12-18T11:57:18;99314.91;;;-0.21;87.46
22580;BME280;11456;47.030;15.396;2022-12-18T12:07:41;99312.31;;;-0.53;88.69
22580;BME280;11456;47.030;15.396;2022-12-18T12:10:23;99316.22;;;-0.66;89.36
22580;BME280;11456;47.030;15.396;2022-12-18T12:22:59;99321.41;;;-0.63;91.55
22580;BME280;11456;47.030;15.396;2022-12-18T12:25:30;99317.94;;;-0.34;91.43
22580;BME280;11456;47.030;15.396;2022-12-18T12:28:02;99324.53;;;-0.49;91.46
22580;BME280;11456;47.030;15.396;2022-12-18T12:35:51;99315.25;;;-0.04;88.91
22580;BME280;11456;47.030;15.396;2022-12-18T12:38:30;99324.22;;;-0.69;92.12
22580;BME280;11456;47.030;15.396;2022-12-18T12:40:57;99310.41;;;-0.48;91.90
22580;BME280;11456;47.030;15.396;2022-12-18T12:46:11;99319.44;;;-0.88;92.97
22580;BME280;11456;47.030;15.396;2022-12-18T12:51:18;99317.50;;;-1.15;96.76
22580;BME280;11456;47.030;15.396;2022-12-18T12:53:47;99317.25;;;-1.04;95.34
22580;BME280;11456;47.030;15.396;2022-12-18T12:56:15;99318.34;;;-1.13;95.81
22580;BME280;11456;47.030;15.396;2022-12-18T13:01:41;99326.28;;;-0.79;95.14
22580;BME280;11456;47.030;15.396;2022-12-18T13:04:25;99320.09;;;-0.79;95.06
22580;BME280;11456;47.030;15.396;2022-12-18T13:09:20;99313.66;;;-0.69;93.69
22580;BME280;11456;47.030;15.396;2022-12-18T13:11:47;99307.78;;;-0.81;94.22
22580;BME280;11456;47.030;15.396;2022-12-18T13:14:33;99316.13;;;-0.96;94.90
22580;BME280;11456;47.030;15.396;2022-12-18T13:19:50;99324.47;;;-1.11;96.67
22580;BME280;11456;47.030;15.396;2022-12-18T13:22:36;99329.75;;;-1.09;97.21
22580;BME280;11456;47.030;15.396;2022-12-18T13:25:26;99322.56;;;-1.06;97.61
22580;BME280;11456;47.030;15.396;2022-12-18T13:27:57;99331.97;;;-1.28;97.49
22580;BME280;11456;47.030;15.396;2022-12-18T13:35:42;99346.72;;;-0.86;97.63
22580;BME280;11456;47.030;15.396;2022-12-18T13:38:36;99354.72;;;-0.89;97.55
22580;BME280;11456;47.030;15.396;2022-12-18T13:43:45;99345.63;;;-1.11;98.30
22580;BME280;11456;47.030;15.396;2022-12-18T13:48:53;99340.75;;;-0.94;99.42
22580;BME280;11456;47.030;15.396;2022-12-18T13:51:21;99348.03;;;-0.69;99.19
22580;BME280;11456;47.030;15.396;2022-12-18T13:53:53;99355.41;;;-0.81;98.78
22580;BME280;11456;47.030;15.396;2022-12-18T13:56:24;99350.66;;;-1.02;98.85
22580;BME280;11456;47.030;15.396;2022-12-18T14:01:41;99352.00;;;-1.19;99.30
22580;BME280;11456;47.030;15.396;2022-12-18T14:04:12;99347.25;;;-1.05;99.82
22580;BME280;11456;47.030;15.396;2022-12-18T14:06:44;99355.09;;;-1.02;98.59
22580;BME280;11456;47.030;15.396;2022-12-18T14:09:15;99351.75;;;-0.76;98.14
22580;BME280;11456;47.030;15.396;2022-12-18T14:11:47;99347.69;;;-0.57;95.27
22580;BME280;11456;47.030;15.396;2022-12-18T14:14:15;99351.91;;;-0.83;94.40
22580;BME280;11456;47.030;15.396;2022-12-18T14:16:42;99347.06;;;-0.98;96.35
22580;BME280;11456;47.030;15.396;2022-12-18T14:19:16;99349.56;;;-0.93;96.59
22580;BME280;11456;47.030;15.396;2022-12-18T14:21:47;99355.25;;;-0.44;93.91
22580;BME280;11456;47.030;15.396;2022-12-18T14:24:15;99358.22;;;-0.54;94.00
22580;BME280;11456;47.030;15.396;2022-12-18T14:26:45;99357.81;;;-1.05;95.69
22580;BME280;11456;47.030;15.396;2022-12-18T14:29:20;99365.72;;;-1.04;97.56
22580;BME280;11456;47.030;15.396;2022-12-18T14:32:21;99368.06;;;-0.92;96.93
22580;BME280;11456;47.030;15.396;2022-12-18T14:34:48;99368.66;;;-0.82;96.89
22580;BME280;11456;47.030;15.396;2022-12-18T14:37:20;99367.88;;;-0.86;96.64
22580;BME280;11456;47.030;15.396;2022-12-18T14:39:58;99361.72;;;-1.20;97.37
22580;BME280;11456;47.030;15.396;2022-12-18T14:42:29;99370.69;;;-0.92;97.45